Campamento Villegas, Argentina
Current Conditions -  °F | °C
As of 1:00 AM on Tuesday 23 Dec 2014 (Local Time) from SAVC Reporting Station
Clear Clear  
Wind Chill: 63°   Ceiling: Unl
Heat Index: 63°   Visibility: 6mi
Dew Point: 41°   Wind: 40mph
Humidity: 45%   Direction: 270°W
Pressure: 29.62"   Gusts: 58mph
Location:  43.37°S, 65.9°W
Report Text: SAVC 230400Z 27035G50KT CAVOK 17/05 Q1003
Loading
Personal Weather Stations






























Interactive Weather Map New forecast layout! Learn more

10-Day Weather Forecast

Advertisements
Track Severe Weather on mobile